sensor_id;sensor_type;location;lat;lon;timestamp;P1;P2;P0
78408;PMS5003;67697;50.750;-3.270;2023-06-04T00:02:01;15;10;
78408;PMS5003;67697;50.750;-3.270;2023-06-04T00:04:27;13;12;
78408;PMS5003;67697;50.750;-3.270;2023-06-04T00:06:53;11;11;
78408;PMS5003;67697;50.750;-3.270;2023-06-04T00:09:18;11;9;
78408;PMS5003;67697;50.750;-3.270;2023-06-04T00:11:43;10;9;
78408;PMS5003;67697;50.750;-3.270;2023-06-04T00:14:09;9;9;
78408;PMS5003;67697;50.750;-3.270;2023-06-04T00:16:34;13;13;
78408;PMS5003;67697;50.750;-3.270;2023-06-04T00:19:00;16;14;
78408;PMS5003;67697;50.750;-3.270;2023-06-04T00:21:25;10;10;
78408;PMS5003;67697;50.750;-3.270;2023-06-04T00:23:50;16;14;
78408;PMS5003;67697;50.750;-3.270;2023-06-04T00:26:16;12;12;
78408;PMS5003;67697;50.750;-3.270;2023-06-04T00:28:41;13;11;
78408;PMS5003;67697;50.750;-3.270;2023-06-04T00:31:07;13;12;
78408;PMS5003;67697;50.750;-3.270;2023-06-04T00:33:32;12;11;
78408;PMS5003;67697;50.750;-3.270;2023-06-04T00:35:58;10;10;
78408;PMS5003;67697;50.750;-3.270;2023-06-04T00:38:24;10;10;
78408;PMS5003;67697;50.750;-3.270;2023-06-04T00:40:49;10;10;
78408;PMS5003;67697;50.750;-3.270;2023-06-04T00:43:15;12;12;
78408;PMS5003;67697;50.750;-3.270;2023-06-04T00:45:40;9;9;
78408;PMS5003;67697;50.750;-3.270;2023-06-04T00:48:06;13;12;
78408;PMS5003;67697;50.750;-3.270;2023-06-04T00:50:31;10;10;
78408;PMS5003;67697;50.750;-3.270;2023-06-04T00:52:57;9;9;
78408;PMS5003;67697;50.750;-3.270;2023-06-04T00:55:23;12;12;
78408;PMS5003;67697;50.750;-3.270;2023-06-04T00:57:48;15;12;
78408;PMS5003;67697;50.750;-3.270;2023-06-04T01:00:14;11;10;
78408;PMS5003;67697;50.750;-3.270;2023-06-04T01:02:39;11;11;
78408;PMS5003;67697;50.750;-3.270;2023-06-04T01:05:07;15;11;
78408;PMS5003;67697;50.750;-3.270;2023-06-04T01:07:30;12;11;
78408;PMS5003;67697;50.750;-3.270;2023-06-04T01:09:56;11;9;
78408;PMS5003;67697;50.750;-3.270;2023-06-04T01:12:22;14;11;
78408;PMS5003;67697;50.750;-3.270;2023-06-04T01:14:47;16;16;
78408;PMS5003;67697;50.750;-3.270;2023-06-04T01:17:15;18;16;
78408;PMS5003;67697;50.750;-3.270;2023-06-04T01:19:44;17;14;
78408;PMS5003;67697;50.750;-3.270;2023-06-04T01:22:04;22;18;
78408;PMS5003;67697;50.750;-3.270;2023-06-04T01:24:28;15;15;
78408;PMS5003;67697;50.750;-3.270;2023-06-04T01:26:53;19;17;
78408;PMS5003;67697;50.750;-3.270;2023-06-04T01:29:18;17;17;
78408;PMS5003;67697;50.750;-3.270;2023-06-04T01:31:44;17;15;
78408;PMS5003;67697;50.750;-3.270;2023-06-04T01:34:09;15;14;
78408;PMS5003;67697;50.750;-3.270;2023-06-04T01:36:35;15;13;
78408;PMS5003;67697;50.750;-3.270;2023-06-04T01:39:00;14;14;
78408;PMS5003;67697;50.750;-3.270;2023-06-04T01:41:25;12;10;
78408;PMS5003;67697;50.750;-3.270;2023-06-04T01:43:51;13;13;
78408;PMS5003;67697;50.750;-3.270;2023-06-04T01:46:16;15;14;
78408;PMS5003;67697;50.750;-3.270;2023-06-04T01:48:42;14;11;
78408;PMS5003;67697;50.750;-3.270;2023-06-04T01:51:07;11;11;
78408;PMS5003;67697;50.750;-3.270;2023-06-04T01:53:33;8;8;
78408;PMS5003;67697;50.750;-3.270;2023-06-04T01:55:58;13;11;
78408;PMS5003;67697;50.750;-3.270;2023-06-04T01:58:23;12;10;
78408;PMS5003;67697;50.750;-3.270;2023-06-04T02:00:49;12;12;
78408;PMS5003;67697;50.750;-3.270;2023-06-04T02:03:15;12;11;
78408;PMS5003;67697;50.750;-3.270;2023-06-04T02:05:40;8;8;
78408;PMS5003;67697;50.750;-3.270;2023-06-04T02:08:05;8;8;
78408;PMS5003;67697;50.750;-3.270;2023-06-04T02:10:31;15;13;
78408;PMS5003;67697;50.750;-3.270;2023-06-04T02:12:57;8;8;
78408;PMS5003;67697;50.750;-3.270;2023-06-04T02:15:23;17;14;
78408;PMS5003;67697;50.750;-3.270;2023-06-04T02:17:48;12;11;
78408;PMS5003;67697;50.750;-3.270;2023-06-04T02:20:13;14;10;
78408;PMS5003;67697;50.750;-3.270;2023-06-04T02:22:39;11;10;
78408;PMS5003;67697;50.750;-3.270;2023-06-04T02:25:05;14;14;
78408;PMS5003;67697;50.750;-3.270;2023-06-04T02:27:30;14;13;
78408;PMS5003;67697;50.750;-3.270;2023-06-04T02:29:55;13;13;
78408;PMS5003;67697;50.750;-3.270;2023-06-04T02:32:21;13;13;
78408;PMS5003;67697;50.750;-3.270;2023-06-04T02:34:46;9;8;
78408;PMS5003;67697;50.750;-3.270;2023-06-04T02:37:12;11;11;
78408;PMS5003;67697;50.750;-3.270;2023-06-04T02:39:37;12;12;
78408;PMS5003;67697;50.750;-3.270;2023-06-04T02:42:03;12;12;
78408;PMS5003;67697;50.750;-3.270;2023-06-04T02:44:28;14;14;
78408;PMS5003;67697;50.750;-3.270;2023-06-04T02:46:53;14;13;
78408;PMS5003;67697;50.750;-3.270;2023-06-04T02:49:19;12;12;
78408;PMS5003;67697;50.750;-3.270;2023-06-04T02:51:45;21;15;
78408;PMS5003;67697;50.750;-3.270;2023-06-04T02:54:10;15;14;
78408;PMS5003;67697;50.750;-3.270;2023-06-04T02:56:36;16;16;
78408;PMS5003;67697;50.750;-3.270;2023-06-04T02:59:01;17;14;
78408;PMS5003;67697;50.750;-3.270;2023-06-04T03:01:26;20;16;
78408;PMS5003;67697;50.750;-3.270;2023-06-04T03:03:52;13;13;
78408;PMS5003;67697;50.750;-3.270;2023-06-04T03:06:18;16;13;
78408;PMS5003;67697;50.750;-3.270;2023-06-04T03:08:43;13;13;
78408;PMS5003;67697;50.750;-3.270;2023-06-04T03:11:08;18;15;
78408;PMS5003;67697;50.750;-3.270;2023-06-04T03:13:34;14;14;
78408;PMS5003;67697;50.750;-3.270;2023-06-04T03:15:59;14;14;
78408;PMS5003;67697;50.750;-3.270;2023-06-04T03:18:24;16;13;
78408;PMS5003;67697;50.750;-3.270;2023-06-04T03:20:50;16;14;
78408;PMS5003;67697;50.750;-3.270;2023-06-04T03:23:15;16;14;
78408;PMS5003;67697;50.750;-3.270;2023-06-04T03:25:41;19;16;
78408;PMS5003;67697;50.750;-3.270;2023-06-04T03:28:06;15;15;
78408;PMS5003;67697;50.750;-3.270;2023-06-04T03:30:31;16;14;
78408;PMS5003;67697;50.750;-3.270;2023-06-04T03:32:57;19;14;
78408;PMS5003;67697;50.750;-3.270;2023-06-04T03:35:22;19;15;
78408;PMS5003;67697;50.750;-3.270;2023-06-04T03:37:48;11;11;
78408;PMS5003;67697;50.750;-3.270;2023-06-04T03:40:13;14;12;
78408;PMS5003;67697;50.750;-3.270;2023-06-04T03:42:39;14;14;
78408;PMS5003;67697;50.750;-3.270;2023-06-04T03:45:04;13;12;
78408;PMS5003;67697;50.750;-3.270;2023-06-04T03:47:30;14;12;
78408;PMS5003;67697;50.750;-3.270;2023-06-04T03:49:55;18;15;
78408;PMS5003;67697;50.750;-3.270;2023-06-04T03:52:20;12;12;
78408;PMS5003;67697;50.750;-3.270;2023-06-04T03:54:46;17;13;
78408;PMS5003;67697;50.750;-3.270;2023-06-04T03:57:11;11;11;
78408;PMS5003;67697;50.750;-3.270;2023-06-04T03:59:37;14;13;
78408;PMS5003;67697;50.750;-3.270;2023-06-04T04:02:02;15;10;
78408;PMS5003;67697;50.750;-3.270;2023-06-04T04:04:28;12;11;
78408;PMS5003;67697;50.750;-3.270;2023-06-04T04:06:53;15;13;
78408;PMS5003;67697;50.750;-3.270;2023-06-04T04:09:19;15;15;
78408;PMS5003;67697;50.750;-3.270;2023-06-04T04:11:44;10;9;
78408;PMS5003;67697;50.750;-3.270;2023-06-04T04:14:10;10;10;
78408;PMS5003;67697;50.750;-3.270;2023-06-04T04:16:35;12;11;
78408;PMS5003;67697;50.750;-3.270;2023-06-04T04:19:01;12;11;
78408;PMS5003;67697;50.750;-3.270;2023-06-04T04:21:27;18;14;
78408;PMS5003;67697;50.750;-3.270;2023-06-04T04:23:53;12;10;
78408;PMS5003;67697;50.750;-3.270;2023-06-04T04:26:19;15;13;
78408;PMS5003;67697;50.750;-3.270;2023-06-04T04:28:44;13;12;
78408;PMS5003;67697;50.750;-3.270;2023-06-04T04:31:10;12;12;
78408;PMS5003;67697;50.750;-3.270;2023-06-04T04:33:35;11;10;
78408;PMS5003;67697;50.750;-3.270;2023-06-04T04:36:00;13;13;
78408;PMS5003;67697;50.750;-3.270;2023-06-04T04:38:26;10;10;
78408;PMS5003;67697;50.750;-3.270;2023-06-04T04:40:52;10;10;
78408;PMS5003;67697;50.750;-3.270;2023-06-04T04:43:27;14;11;
78408;PMS5003;67697;50.750;-3.270;2023-06-04T04:45:43;13;13;
78408;PMS5003;67697;50.750;-3.270;2023-06-04T04:48:08;13;11;
78408;PMS5003;67697;50.750;-3.270;2023-06-04T04:50:34;13;12;
78408;PMS5003;67697;50.750;-3.270;2023-06-04T04:52:59;16;13;
78408;PMS5003;67697;50.750;-3.270;2023-06-04T04:55:25;14;14;
78408;PMS5003;67697;50.750;-3.270;2023-06-04T04:57:51;13;13;
78408;PMS5003;67697;50.750;-3.270;2023-06-04T05:00:16;12;11;
78408;PMS5003;67697;50.750;-3.270;2023-06-04T05:02:42;12;11;
78408;PMS5003;67697;50.750;-3.270;2023-06-04T05:05:07;14;14;
78408;PMS5003;67697;50.750;-3.270;2023-06-04T05:07:32;11;10;
78408;PMS5003;67697;50.750;-3.270;2023-06-04T05:09:58;16;11;
78408;PMS5003;67697;50.750;-3.270;2023-06-04T05:12:24;16;12;
78408;PMS5003;67697;50.750;-3.270;2023-06-04T05:14:49;12;12;
78408;PMS5003;67697;50.750;-3.270;2023-06-04T05:17:15;9;9;
78408;PMS5003;67697;50.750;-3.270;2023-06-04T05:19:40;14;13;
78408;PMS5003;67697;50.750;-3.270;2023-06-04T05:22:06;10;10;
78408;PMS5003;67697;50.750;-3.270;2023-06-04T05:24:32;11;11;
78408;PMS5003;67697;50.750;-3.270;2023-06-04T05:26:57;13;11;
78408;PMS5003;67697;50.750;-3.270;2023-06-04T05:29:23;11;11;
78408;PMS5003;67697;50.750;-3.270;2023-06-04T05:31:49;9;9;
78408;PMS5003;67697;50.750;-3.270;2023-06-04T05:34:14;11;11;
78408;PMS5003;67697;50.750;-3.270;2023-06-04T05:36:40;12;11;
78408;PMS5003;67697;50.750;-3.270;2023-06-04T05:39:06;17;14;
78408;PMS5003;67697;50.750;-3.270;2023-06-04T05:41:32;11;9;
78408;PMS5003;67697;50.750;-3.270;2023-06-04T05:43:57;10;10;
78408;PMS5003;67697;50.750;-3.270;2023-06-04T05:46:23;10;7;
78408;PMS5003;67697;50.750;-3.270;2023-06-04T05:48:49;9;9;
78408;PMS5003;67697;50.750;-3.270;2023-06-04T05:51:14;9;9;
78408;PMS5003;67697;50.750;-3.270;2023-06-04T05:53:40;10;10;
78408;PMS5003;67697;50.750;-3.270;2023-06-04T05:56:05;11;8;
78408;PMS5003;67697;50.750;-3.270;2023-06-04T05:58:32;12;10;
78408;PMS5003;67697;50.750;-3.270;2023-06-04T06:00:56;12;11;
78408;PMS5003;67697;50.750;-3.270;2023-06-04T06:03:21;12;8;
78408;PMS5003;67697;50.750;-3.270;2023-06-04T06:05:47;10;8;
78408;PMS5003;67697;50.750;-3.270;2023-06-04T06:08:13;12;12;
78408;PMS5003;67697;50.750;-3.270;2023-06-04T06:10:38;11;10;
78408;PMS5003;67697;50.750;-3.270;2023-06-04T06:13:04;8;8;
78408;PMS5003;67697;50.750;-3.270;2023-06-04T06:15:29;12;12;
78408;PMS5003;67697;50.750;-3.270;2023-06-04T06:17:54;11;9;
78408;PMS5003;67697;50.750;-3.270;2023-06-04T06:20:20;12;11;
78408;PMS5003;67697;50.750;-3.270;2023-06-04T06:22:46;9;9;
78408;PMS5003;67697;50.750;-3.270;2023-06-04T06:25:12;7;7;
78408;PMS5003;67697;50.750;-3.270;2023-06-04T06:27:37;9;8;
78408;PMS5003;67697;50.750;-3.270;2023-06-04T06:30:03;9;7;
78408;PMS5003;67697;50.750;-3.270;2023-06-04T06:32:28;12;9;
78408;PMS5003;67697;50.750;-3.270;2023-06-04T06:34:54;12;9;
78408;PMS5003;67697;50.750;-3.270;2023-06-04T06:37:20;13;10;
78408;PMS5003;67697;50.750;-3.270;2023-06-04T06:39:45;8;6;
78408;PMS5003;67697;50.750;-3.270;2023-06-04T06:42:11;8;7;
78408;PMS5003;67697;50.750;-3.270;2023-06-04T06:44:36;8;7;
78408;PMS5003;67697;50.750;-3.270;2023-06-04T06:47:02;10;7;
78408;PMS5003;67697;50.750;-3.270;2023-06-04T06:49:27;9;8;
78408;PMS5003;67697;50.750;-3.270;2023-06-04T06:51:53;9;9;
78408;PMS5003;67697;50.750;-3.270;2023-06-04T06:54:18;11;7;
78408;PMS5003;67697;50.750;-3.270;2023-06-04T06:56:44;8;8;
78408;PMS5003;67697;50.750;-3.270;2023-06-04T06:59:09;10;8;
78408;PMS5003;67697;50.750;-3.270;2023-06-04T07:01:35;10;8;
78408;PMS5003;67697;50.750;-3.270;2023-06-04T07:04:01;7;7;
78408;PMS5003;67697;50.750;-3.270;2023-06-04T07:06:26;9;5;
78408;PMS5003;67697;50.750;-3.270;2023-06-04T07:08:52;6;6;
78408;PMS5003;67697;50.750;-3.270;2023-06-04T07:11:18;8;6;
78408;PMS5003;67697;50.750;-3.270;2023-06-04T07:13:43;7;7;
78408;PMS5003;67697;50.750;-3.270;2023-06-04T07:16:09;8;8;
78408;PMS5003;67697;50.750;-3.270;2023-06-04T07:18:34;8;7;
78408;PMS5003;67697;50.750;-3.270;2023-06-04T07:21:00;8;7;
78408;PMS5003;67697;50.750;-3.270;2023-06-04T07:23:26;11;7;
78408;PMS5003;67697;50.750;-3.270;2023-06-04T07:25:51;8;8;
78408;PMS5003;67697;50.750;-3.270;2023-06-04T07:28:16;8;7;
78408;PMS5003;67697;50.750;-3.270;2023-06-04T07:30:44;7;6;
78408;PMS5003;67697;50.750;-3.270;2023-06-04T07:33:08;9;9;
78408;PMS5003;67697;50.750;-3.270;2023-06-04T07:35:33;8;7;
78408;PMS5003;67697;50.750;-3.270;2023-06-04T07:37:59;10;10;
78408;PMS5003;67697;50.750;-3.270;2023-06-04T07:40:24;7;6;
78408;PMS5003;67697;50.750;-3.270;2023-06-04T07:42:49;8;8;
78408;PMS5003;67697;50.750;-3.270;2023-06-04T07:45:15;9;6;
78408;PMS5003;67697;50.750;-3.270;2023-06-04T07:47:40;7;6;
78408;PMS5003;67697;50.750;-3.270;2023-06-04T07:50:06;10;10;
78408;PMS5003;67697;50.750;-3.270;2023-06-04T07:52:32;9;7;
78408;PMS5003;67697;50.750;-3.270;2023-06-04T07:54:59;10;10;
78408;PMS5003;67697;50.750;-3.270;2023-06-04T07:57:22;9;8;
78408;PMS5003;67697;50.750;-3.270;2023-06-04T07:59:49;8;8;
78408;PMS5003;67697;50.750;-3.270;2023-06-04T08:02:14;9;7;
78408;PMS5003;67697;50.750;-3.270;2023-06-04T08:04:39;8;8;
78408;PMS5003;67697;50.750;-3.270;2023-06-04T08:07:05;7;7;
78408;PMS5003;67697;50.750;-3.270;2023-06-04T08:09:30;11;7;
78408;PMS5003;67697;50.750;-3.270;2023-06-04T08:11:56;9;9;
78408;PMS5003;67697;50.750;-3.270;2023-06-04T08:14:21;6;6;
78408;PMS5003;67697;50.750;-3.270;2023-06-04T08:16:47;8;8;
78408;PMS5003;67697;50.750;-3.270;2023-06-04T08:19:12;8;8;
78408;PMS5003;67697;50.750;-3.270;2023-06-04T08:21:38;8;8;
78408;PMS5003;67697;50.750;-3.270;2023-06-04T08:24:04;6;6;
78408;PMS5003;67697;50.750;-3.270;2023-06-04T08:26:29;9;8;
78408;PMS5003;67697;50.750;-3.270;2023-06-04T08:28:55;6;6;
78408;PMS5003;67697;50.750;-3.270;2023-06-04T08:31:20;8;8;
78408;PMS5003;67697;50.750;-3.270;2023-06-04T08:33:46;8;7;
78408;PMS5003;67697;50.750;-3.270;2023-06-04T08:36:12;6;5;
78408;PMS5003;67697;50.750;-3.270;2023-06-04T08:38:37;7;7;
78408;PMS5003;67697;50.750;-3.270;2023-06-04T08:41:06;7;7;
78408;PMS5003;67697;50.750;-3.270;2023-06-04T08:43:28;10;8;
78408;PMS5003;67697;50.750;-3.270;2023-06-04T08:45:56;8;6;
78408;PMS5003;67697;50.750;-3.270;2023-06-04T08:48:19;6;6;
78408;PMS5003;67697;50.750;-3.270;2023-06-04T08:50:45;7;7;
78408;PMS5003;67697;50.750;-3.270;2023-06-04T08:53:11;5;5;
78408;PMS5003;67697;50.750;-3.270;2023-06-04T08:55:36;8;8;
78408;PMS5003;67697;50.750;-3.270;2023-06-04T08:58:01;8;8;
78408;PMS5003;67697;50.750;-3.270;2023-06-04T09:00:27;6;6;
78408;PMS5003;67697;50.750;-3.270;2023-06-04T09:02:53;7;7;
78408;PMS5003;67697;50.750;-3.270;2023-06-04T09:05:19;7;6;
78408;PMS5003;67697;50.750;-3.270;2023-06-04T09:07:44;7;7;
78408;PMS5003;67697;50.750;-3.270;2023-06-04T09:10:09;6;5;
78408;PMS5003;67697;50.750;-3.270;2023-06-04T09:12:35;8;8;
78408;PMS5003;67697;50.750;-3.270;2023-06-04T09:15:00;6;5;
78408;PMS5003;67697;50.750;-3.270;2023-06-04T09:17:26;6;6;
78408;PMS5003;67697;50.750;-3.270;2023-06-04T09:19:51;11;10;
78408;PMS5003;67697;50.750;-3.270;2023-06-04T09:22:17;5;5;
78408;PMS5003;67697;50.750;-3.270;2023-06-04T09:24:43;7;7;
78408;PMS5003;67697;50.750;-3.270;2023-06-04T09:27:09;7;6;
78408;PMS5003;67697;50.750;-3.270;2023-06-04T09:29:33;6;6;
78408;PMS5003;67697;50.750;-3.270;2023-06-04T09:31:59;6;6;
78408;PMS5003;67697;50.750;-3.270;2023-06-04T09:34:26;4;4;
78408;PMS5003;67697;50.750;-3.270;2023-06-04T09:36:49;6;6;
78408;PMS5003;67697;50.750;-3.270;2023-06-04T09:39:15;6;6;
78408;PMS5003;67697;50.750;-3.270;2023-06-04T09:41:41;7;6;
78408;PMS5003;67697;50.750;-3.270;2023-06-04T09:44:06;8;6;
78408;PMS5003;67697;50.750;-3.270;2023-06-04T09:46:32;5;5;
78408;PMS5003;67697;50.750;-3.270;2023-06-04T09:49:01;6;6;
78408;PMS5003;67697;50.750;-3.270;2023-06-04T09:51:22;6;6;
78408;PMS5003;67697;50.750;-3.270;2023-06-04T09:53:53;6;6;
78408;PMS5003;67697;50.750;-3.270;2023-06-04T09:56:14;8;8;
78408;PMS5003;67697;50.750;-3.270;2023-06-04T09:58:39;8;6;
78408;PMS5003;67697;50.750;-3.270;2023-06-04T10:01:05;9;8;
78408;PMS5003;67697;50.750;-3.270;2023-06-04T10:03:31;6;6;
78408;PMS5003;67697;50.750;-3.270;2023-06-04T10:05:56;7;7;
78408;PMS5003;67697;50.750;-3.270;2023-06-04T10:08:21;7;7;
78408;PMS5003;67697;50.750;-3.270;2023-06-04T10:10:47;6;6;
78408;PMS5003;67697;50.750;-3.270;2023-06-04T10:13:14;7;7;
78408;PMS5003;67697;50.750;-3.270;2023-06-04T10:15:38;4;4;
78408;PMS5003;67697;50.750;-3.270;2023-06-04T10:18:03;6;5;
78408;PMS5003;67697;50.750;-3.270;2023-06-04T10:20:29;8;7;
78408;PMS5003;67697;50.750;-3.270;2023-06-04T10:22:55;4;4;
78408;PMS5003;67697;50.750;-3.270;2023-06-04T10:25:20;7;5;
78408;PMS5003;67697;50.750;-3.270;2023-06-04T10:27:46;5;5;
78408;PMS5003;67697;50.750;-3.270;2023-06-04T10:30:11;6;6;
78408;PMS5003;67697;50.750;-3.270;2023-06-04T10:32:37;6;6;
78408;PMS5003;67697;50.750;-3.270;2023-06-04T10:35:03;6;6;
78408;PMS5003;67697;50.750;-3.270;2023-06-04T10:37:28;5;5;
78408;PMS5003;67697;50.750;-3.270;2023-06-04T10:39:53;6;6;
78408;PMS5003;67697;50.750;-3.270;2023-06-04T10:42:19;6;6;
78408;PMS5003;67697;50.750;-3.270;2023-06-04T10:44:45;7;7;
78408;PMS5003;67697;50.750;-3.270;2023-06-04T10:49:35;8;5;
78408;PMS5003;67697;50.750;-3.270;2023-06-04T10:54:26;7;6;
78408;PMS5003;67697;50.750;-3.270;2023-06-04T10:56:52;5;5;
78408;PMS5003;67697;50.750;-3.270;2023-06-04T10:59:17;5;5;
78408;PMS5003;67697;50.750;-3.270;2023-06-04T11:01:43;5;5;
78408;PMS5003;67697;50.750;-3.270;2023-06-04T11:06:34;6;6;
78408;PMS5003;67697;50.750;-3.270;2023-06-04T11:09:03;8;7;
78408;PMS5003;67697;50.750;-3.270;2023-06-04T11:11:24;5;4;
78408;PMS5003;67697;50.750;-3.270;2023-06-04T11:13:50;5;5;
78408;PMS5003;67697;50.750;-3.270;2023-06-04T11:16:15;6;5;
78408;PMS5003;67697;50.750;-3.270;2023-06-04T11:18:41;6;4;
78408;PMS5003;67697;50.750;-3.270;2023-06-04T11:21:06;4;4;
78408;PMS5003;67697;50.750;-3.270;2023-06-04T11:23:32;4;4;
78408;PMS5003;67697;50.750;-3.270;2023-06-04T11:25:57;7;7;
78408;PMS5003;67697;50.750;-3.270;2023-06-04T11:28:23;6;6;
78408;PMS5003;67697;50.750;-3.270;2023-06-04T11:30:57;5;5;
78408;PMS5003;67697;50.750;-3.270;2023-06-04T11:33:14;8;6;
78408;PMS5003;67697;50.750;-3.270;2023-06-04T11:35:40;5;5;
78408;PMS5003;67697;50.750;-3.270;2023-06-04T11:38:05;6;6;
78408;PMS5003;67697;50.750;-3.270;2023-06-04T11:40:30;8;7;
78408;PMS5003;67697;50.750;-3.270;2023-06-04T11:42:56;4;4;
78408;PMS5003;67697;50.750;-3.270;2023-06-04T11:45:22;4;4;
78408;PMS5003;67697;50.750;-3.270;2023-06-04T11:47:47;5;5;
78408;PMS5003;67697;50.750;-3.270;2023-06-04T11:50:12;5;5;
78408;PMS5003;67697;50.750;-3.270;2023-06-04T11:52:38;7;7;
78408;PMS5003;67697;50.750;-3.270;2023-06-04T11:55:04;8;6;
78408;PMS5003;67697;50.750;-3.270;2023-06-04T11:57:29;5;4;
78408;PMS5003;67697;50.750;-3.270;2023-06-04T11:59:54;4;4;
78408;PMS5003;67697;50.750;-3.270;2023-06-04T12:02:20;5;5;
78408;PMS5003;67697;50.750;-3.270;2023-06-04T12:04:45;6;3;
78408;PMS5003;67697;50.750;-3.270;2023-06-04T12:07:11;6;5;
78408;PMS5003;67697;50.750;-3.270;2023-06-04T12:09:36;7;5;
78408;PMS5003;67697;50.750;-3.270;2023-06-04T12:12:02;5;5;
78408;PMS5003;67697;50.750;-3.270;2023-06-04T12:14:27;6;6;
78408;PMS5003;67697;50.750;-3.270;2023-06-04T12:16:56;5;5;
78408;PMS5003;67697;50.750;-3.270;2023-06-04T12:19:18;6;6;
78408;PMS5003;67697;50.750;-3.270;2023-06-04T12:21:44;5;4;
78408;PMS5003;67697;50.750;-3.270;2023-06-04T12:24:10;5;5;
78408;PMS5003;67697;50.750;-3.270;2023-06-04T12:26:34;6;6;
78408;PMS5003;67697;50.750;-3.270;2023-06-04T12:29:00;5;5;
78408;PMS5003;67697;50.750;-3.270;2023-06-04T12:31:26;4;4;
78408;PMS5003;67697;50.750;-3.270;2023-06-04T12:33:51;2;2;
78408;PMS5003;67697;50.750;-3.270;2023-06-04T12:36:16;6;4;
78408;PMS5003;67697;50.750;-3.270;2023-06-04T12:38:42;5;5;
78408;PMS5003;67697;50.750;-3.270;2023-06-04T12:41:07;6;5;
78408;PMS5003;67697;50.750;-3.270;2023-06-04T12:43:33;3;3;
78408;PMS5003;67697;50.750;-3.270;2023-06-04T12:45:58;7;6;
78408;PMS5003;67697;50.750;-3.270;2023-06-04T12:48:24;4;4;
78408;PMS5003;67697;50.750;-3.270;2023-06-04T12:50:49;5;5;
78408;PMS5003;67697;50.750;-3.270;2023-06-04T12:53:15;5;5;
78408;PMS5003;67697;50.750;-3.270;2023-06-04T12:55:40;5;3;
78408;PMS5003;67697;50.750;-3.270;2023-06-04T12:58:05;5;5;
78408;PMS5003;67697;50.750;-3.270;2023-06-04T13:00:31;3;3;
78408;PMS5003;67697;50.750;-3.270;2023-06-04T13:02:56;4;4;
78408;PMS5003;67697;50.750;-3.270;2023-06-04T13:05:22;2;2;
78408;PMS5003;67697;50.750;-3.270;2023-06-04T13:07:47;5;5;
78408;PMS5003;67697;50.750;-3.270;2023-06-04T13:10:13;5;5;
78408;PMS5003;67697;50.750;-3.270;2023-06-04T13:12:38;3;3;
78408;PMS5003;67697;50.750;-3.270;2023-06-04T13:15:04;4;4;
78408;PMS5003;67697;50.750;-3.270;2023-06-04T13:17:29;5;5;
78408;PMS5003;67697;50.750;-3.270;2023-06-04T13:19:55;5;5;
78408;PMS5003;67697;50.750;-3.270;2023-06-04T13:22:20;4;4;
78408;PMS5003;67697;50.750;-3.270;2023-06-04T13:24:46;7;4;
78408;PMS5003;67697;50.750;-3.270;2023-06-04T13:27:11;7;5;
78408;PMS5003;67697;50.750;-3.270;2023-06-04T13:29:37;3;3;
78408;PMS5003;67697;50.750;-3.270;2023-06-04T13:32:02;5;5;
78408;PMS5003;67697;50.750;-3.270;2023-06-04T13:34:28;4;3;
78408;PMS5003;67697;50.750;-3.270;2023-06-04T13:36:54;3;3;
78408;PMS5003;67697;50.750;-3.270;2023-06-04T13:39:19;5;3;
78408;PMS5003;67697;50.750;-3.270;2023-06-04T13:41:44;2;2;
78408;PMS5003;67697;50.750;-3.270;2023-06-04T13:44:09;3;3;
78408;PMS5003;67697;50.750;-3.270;2023-06-04T13:46:35;3;3;
78408;PMS5003;67697;50.750;-3.270;2023-06-04T13:49:01;3;3;
78408;PMS5003;67697;50.750;-3.270;2023-06-04T13:51:26;4;4;
78408;PMS5003;67697;50.750;-3.270;2023-06-04T13:53:51;4;4;
78408;PMS5003;67697;50.750;-3.270;2023-06-04T13:56:17;6;5;
78408;PMS5003;67697;50.750;-3.270;2023-06-04T13:58:42;4;4;
78408;PMS5003;67697;50.750;-3.270;2023-06-04T14:01:08;4;3;
78408;PMS5003;67697;50.750;-3.270;2023-06-04T14:03:33;4;2;
78408;PMS5003;67697;50.750;-3.270;2023-06-04T14:05:59;4;4;
78408;PMS5003;67697;50.750;-3.270;2023-06-04T14:08:24;4;4;
78408;PMS5003;67697;50.750;-3.270;2023-06-04T14:10:50;5;4;
78408;PMS5003;67697;50.750;-3.270;2023-06-04T14:13:15;4;4;
78408;PMS5003;67697;50.750;-3.270;2023-06-04T14:15:41;2;2;
78408;PMS5003;67697;50.750;-3.270;2023-06-04T14:18:06;5;5;
78408;PMS5003;67697;50.750;-3.270;2023-06-04T14:20:32;5;5;
78408;PMS5003;67697;50.750;-3.270;2023-06-04T14:22:57;4;4;
78408;PMS5003;67697;50.750;-3.270;2023-06-04T14:25:23;5;4;
78408;PMS5003;67697;50.750;-3.270;2023-06-04T14:27:48;6;5;
78408;PMS5003;67697;50.750;-3.270;2023-06-04T14:30:13;5;4;
78408;PMS5003;67697;50.750;-3.270;2023-06-04T14:32:39;3;3;
78408;PMS5003;67697;50.750;-3.270;2023-06-04T14:35:05;4;4;
78408;PMS5003;67697;50.750;-3.270;2023-06-04T14:37:30;5;5;
78408;PMS5003;67697;50.750;-3.270;2023-06-04T14:39:55;3;3;
78408;PMS5003;67697;50.750;-3.270;2023-06-04T14:42:21;4;4;
78408;PMS5003;67697;50.750;-3.270;2023-06-04T14:44:46;2;2;
78408;PMS5003;67697;50.750;-3.270;2023-06-04T14:47:12;3;3;
78408;PMS5003;67697;50.750;-3.270;2023-06-04T14:49:37;5;5;
78408;PMS5003;67697;50.750;-3.270;2023-06-04T14:52:03;5;4;
78408;PMS5003;67697;50.750;-3.270;2023-06-04T14:54:28;4;4;
78408;PMS5003;67697;50.750;-3.270;2023-06-04T14:56:53;3;3;
78408;PMS5003;67697;50.750;-3.270;2023-06-04T14:59:19;4;4;
78408;PMS5003;67697;50.750;-3.270;2023-06-04T15:01:44;5;4;
78408;PMS5003;67697;50.750;-3.270;2023-06-04T15:04:10;5;5;
78408;PMS5003;67697;50.750;-3.270;2023-06-04T15:09:01;4;4;
78408;PMS5003;67697;50.750;-3.270;2023-06-04T15:11:26;4;4;
78408;PMS5003;67697;50.750;-3.270;2023-06-04T15:13:52;4;4;
78408;PMS5003;67697;50.750;-3.270;2023-06-04T15:16:17;3;3;
78408;PMS5003;67697;50.750;-3.270;2023-06-04T15:18:43;6;4;
78408;PMS5003;67697;50.750;-3.270;2023-06-04T15:21:08;7;5;
78408;PMS5003;67697;50.750;-3.270;2023-06-04T15:23:33;5;3;
78408;PMS5003;67697;50.750;-3.270;2023-06-04T15:25:59;5;3;
78408;PMS5003;67697;50.750;-3.270;2023-06-04T15:28:24;5;5;
78408;PMS5003;67697;50.750;-3.270;2023-06-04T15:30:50;3;3;
78408;PMS5003;67697;50.750;-3.270;2023-06-04T15:38:06;4;4;
78408;PMS5003;67697;50.750;-3.270;2023-06-04T15:45:22;3;3;
78408;PMS5003;67697;50.750;-3.270;2023-06-04T15:47:48;6;5;
78408;PMS5003;67697;50.750;-3.270;2023-06-04T15:50:13;5;4;
78408;PMS5003;67697;50.750;-3.270;2023-06-04T15:52:39;4;3;
78408;PMS5003;67697;50.750;-3.270;2023-06-04T15:55:05;5;4;
78408;PMS5003;67697;50.750;-3.270;2023-06-04T15:57:30;3;3;
78408;PMS5003;67697;50.750;-3.270;2023-06-04T15:59:55;3;3;
78408;PMS5003;67697;50.750;-3.270;2023-06-04T16:02:21;4;4;
78408;PMS5003;67697;50.750;-3.270;2023-06-04T16:04:46;5;4;
78408;PMS5003;67697;50.750;-3.270;2023-06-04T16:07:12;3;3;
78408;PMS5003;67697;50.750;-3.270;2023-06-04T16:09:37;5;3;
78408;PMS5003;67697;50.750;-3.270;2023-06-04T16:12:03;4;4;
78408;PMS5003;67697;50.750;-3.270;2023-06-04T16:14:28;4;3;
78408;PMS5003;67697;50.750;-3.270;2023-06-04T16:16:54;3;3;
78408;PMS5003;67697;50.750;-3.270;2023-06-04T16:19:19;4;4;
78408;PMS5003;67697;50.750;-3.270;2023-06-04T16:21:44;4;4;
78408;PMS5003;67697;50.750;-3.270;2023-06-04T16:24:10;6;5;
78408;PMS5003;67697;50.750;-3.270;2023-06-04T16:26:35;4;4;
78408;PMS5003;67697;50.750;-3.270;2023-06-04T16:29:01;4;3;